sensor_id;sensor_type;location;lat;lon;timestamp;pressure;altitude;pressure_sealevel;temperature;humidity
85386;BME280;75792;42.686;23.298;2024-02-04T00:01:54;95097.00;;;7.65;58.16
85386;BME280;75792;42.686;23.298;2024-02-04T00:04:19;95133.91;;;7.68;57.86
85386;BME280;75792;42.686;23.298;2024-02-04T00:06:45;95112.19;;;7.68;58.84
85386;BME280;75792;42.686;23.298;2024-02-04T00:09:10;95091.50;;;7.61;58.77
85386;BME280;75792;42.686;23.298;2024-02-04T00:11:36;95108.00;;;7.62;58.54
85386;BME280;75792;42.686;23.298;2024-02-04T00:14:01;95096.50;;;7.58;59.04
85386;BME280;75792;42.686;23.298;2024-02-04T00:16:28;95096.78;;;7.56;58.70
85386;BME280;75792;42.686;23.298;2024-02-04T00:18:53;95093.13;;;7.52;59.04
85386;BME280;75792;42.686;23.298;2024-02-04T00:21:18;95124.78;;;7.56;59.25
85386;BME280;75792;42.686;23.298;2024-02-04T00:23:44;95116.94;;;7.56;59.38
85386;BME280;75792;42.686;23.298;2024-02-04T00:26:09;95120.63;;;7.49;59.16
85386;BME280;75792;42.686;23.298;2024-02-04T00:28:35;95100.22;;;7.46;59.57
85386;BME280;75792;42.686;23.298;2024-02-04T00:31:00;95120.13;;;7.42;59.86
85386;BME280;75792;42.686;23.298;2024-02-04T00:33:25;95137.91;;;7.51;59.65
85386;BME280;75792;42.686;23.298;2024-02-04T00:35:51;95118.28;;;7.43;59.13
85386;BME280;75792;42.686;23.298;2024-02-04T00:38:16;95080.31;;;7.45;59.53
85386;BME280;75792;42.686;23.298;2024-02-04T00:40:42;95131.88;;;7.50;60.15
85386;BME280;75792;42.686;23.298;2024-02-04T00:43:07;95099.69;;;7.49;60.35
85386;BME280;75792;42.686;23.298;2024-02-04T00:45:33;95080.84;;;7.47;60.40
85386;BME280;75792;42.686;23.298;2024-02-04T00:47:58;95092.88;;;7.48;60.32
85386;BME280;75792;42.686;23.298;2024-02-04T00:50:23;95090.78;;;7.51;60.63
85386;BME280;75792;42.686;23.298;2024-02-04T00:52:49;95100.22;;;7.52;60.31
85386;BME280;75792;42.686;23.298;2024-02-04T00:55:14;95102.84;;;7.52;60.37
85386;BME280;75792;42.686;23.298;2024-02-04T00:57:39;95087.63;;;7.48;60.67
85386;BME280;75792;42.686;23.298;2024-02-04T01:00:05;95079.28;;;7.52;61.02
85386;BME280;75792;42.686;23.298;2024-02-04T01:02:31;95085.00;;;7.54;60.68
85386;BME280;75792;42.686;23.298;2024-02-04T01:04:56;95090.28;;;7.43;61.09
85386;BME280;75792;42.686;23.298;2024-02-04T01:07:22;95090.28;;;7.43;61.47
85386;BME280;75792;42.686;23.298;2024-02-04T01:09:47;95089.25;;;7.39;61.70
85386;BME280;75792;42.686;23.298;2024-02-04T01:12:12;95094.50;;;7.39;61.71
85386;BME280;75792;42.686;23.298;2024-02-04T01:14:38;95076.19;;;7.34;61.99
85386;BME280;75792;42.686;23.298;2024-02-04T01:17:03;95083.53;;;7.32;61.96
85386;BME280;75792;42.686;23.298;2024-02-04T01:19:29;95089.50;;;7.38;62.50
85386;BME280;75792;42.686;23.298;2024-02-04T01:21:54;95096.56;;;7.42;62.19
85386;BME280;75792;42.686;23.298;2024-02-04T01:24:19;95078.22;;;7.53;61.95
85386;BME280;75792;42.686;23.298;2024-02-04T01:26:45;95099.94;;;7.53;62.00
85386;BME280;75792;42.686;23.298;2024-02-04T01:29:10;95103.31;;;7.59;62.22
85386;BME280;75792;42.686;23.298;2024-02-04T01:31:36;95085.00;;;7.54;61.83
85386;BME280;75792;42.686;23.298;2024-02-04T01:34:02;95111.69;;;7.56;62.34
85386;BME280;75792;42.686;23.298;2024-02-04T01:36:27;95092.84;;;7.59;62.11
85386;BME280;75792;42.686;23.298;2024-02-04T01:38:52;95091.28;;;7.58;62.19
85386;BME280;75792;42.686;23.298;2024-02-04T01:41:18;95077.91;;;7.59;61.74
85386;BME280;75792;42.686;23.298;2024-02-04T01:43:43;95061.91;;;7.66;62.11
85386;BME280;75792;42.686;23.298;2024-02-04T01:46:09;95104.78;;;7.75;62.24
85386;BME280;75792;42.686;23.298;2024-02-04T01:48:35;95070.22;;;7.78;61.47
85386;BME280;75792;42.686;23.298;2024-02-04T01:51:01;95089.03;;;7.80;61.82
85386;BME280;75792;42.686;23.298;2024-02-04T01:53:28;95097.97;;;7.79;61.91
85386;BME280;75792;42.686;23.298;2024-02-04T01:55:54;95072.03;;;7.78;62.21
85386;BME280;75792;42.686;23.298;2024-02-04T01:58:21;95079.06;;;7.87;62.15
85386;BME280;75792;42.686;23.298;2024-02-04T02:00:48;95058.09;;;7.87;61.98
85386;BME280;75792;42.686;23.298;2024-02-04T02:03:15;95078.53;;;7.85;62.26
85386;BME280;75792;42.686;23.298;2024-02-04T02:05:41;95102.13;;;7.85;61.97
85386;BME280;75792;42.686;23.298;2024-02-04T02:08:07;95080.59;;;7.88;62.28
85386;BME280;75792;42.686;23.298;2024-02-04T02:10:32;95061.78;;;7.86;61.94
85386;BME280;75792;42.686;23.298;2024-02-04T02:13:20;95093.22;;;7.86;62.00
85386;BME280;75792;42.686;23.298;2024-02-04T02:16:03;95050.84;;;7.74;62.12
85386;BME280;75792;42.686;23.298;2024-02-04T02:18:43;95082.19;;;7.89;62.04
85386;BME280;75792;42.686;23.298;2024-02-04T02:23:38;95084.81;;;7.89;61.37
85386;BME280;75792;42.686;23.298;2024-02-04T02:26:06;95073.81;;;7.87;62.13
85386;BME280;75792;42.686;23.298;2024-02-04T02:28:31;95059.13;;;7.91;61.92
85386;BME280;75792;42.686;23.298;2024-02-04T02:30:57;95050.97;;;7.93;61.92
85386;BME280;75792;42.686;23.298;2024-02-04T02:33:23;95053.91;;;7.91;61.93
85386;BME280;75792;42.686;23.298;2024-02-04T02:35:57;95032.94;;;7.91;62.15
85386;BME280;75792;42.686;23.298;2024-02-04T02:41:16;95050.22;;;7.92;61.91
85386;BME280;75792;42.686;23.298;2024-02-04T02:43:43;95053.91;;;7.91;62.18
85386;BME280;75792;42.686;23.298;2024-02-04T02:46:09;95053.63;;;7.88;61.76
85386;BME280;75792;42.686;23.298;2024-02-04T02:48:35;95049.19;;;7.88;61.61
85386;BME280;75792;42.686;23.298;2024-02-04T02:51:00;95048.66;;;7.91;61.54
85386;BME280;75792;42.686;23.298;2024-02-04T02:53:26;95038.19;;;7.91;61.51
85386;BME280;75792;42.686;23.298;2024-02-04T02:55:51;95052.84;;;7.92;61.28
85386;BME280;75792;42.686;23.298;2024-02-04T02:58:17;95030.03;;;7.93;61.73
85386;BME280;75792;42.686;23.298;2024-02-04T03:00:42;95049.97;;;7.89;61.23
85386;BME280;75792;42.686;23.298;2024-02-04T03:03:08;95032.13;;;7.91;61.69
85386;BME280;75792;42.686;23.298;2024-02-04T03:05:34;95022.50;;;7.86;61.48
85386;BME280;75792;42.686;23.298;2024-02-04T03:07:59;95029.81;;;7.89;61.66
85386;BME280;75792;42.686;23.298;2024-02-04T03:10:24;95045.78;;;7.88;61.52
85386;BME280;75792;42.686;23.298;2024-02-04T03:12:50;95056.47;;;7.97;61.14
85386;BME280;75792;42.686;23.298;2024-02-04T03:15:15;95039.66;;;8.03;61.12
85386;BME280;75792;42.686;23.298;2024-02-04T03:17:42;95041.22;;;8.04;61.38
85386;BME280;75792;42.686;23.298;2024-02-04T03:20:08;95045.41;;;8.05;61.53
85386;BME280;75792;42.686;23.298;2024-02-04T03:22:34;95037.53;;;8.10;61.18
85386;BME280;75792;42.686;23.298;2024-02-04T03:24:59;95047.44;;;8.13;60.95
85386;BME280;75792;42.686;23.298;2024-02-04T03:27:26;95035.91;;;8.14;61.63
85386;BME280;75792;42.686;23.298;2024-02-04T03:29:51;95039.03;;;8.16;61.40
85386;BME280;75792;42.686;23.298;2024-02-04T03:32:16;95042.72;;;8.15;61.10
85386;BME280;75792;42.686;23.298;2024-02-04T03:34:42;95020.72;;;8.11;61.06
85386;BME280;75792;42.686;23.298;2024-02-04T03:37:07;95045.81;;;8.17;60.77
85386;BME280;75792;42.686;23.298;2024-02-04T03:39:32;95031.22;;;8.11;61.17
85386;BME280;75792;42.686;23.298;2024-02-04T03:41:58;95047.41;;;8.18;61.04
85386;BME280;75792;42.686;23.298;2024-02-04T03:44:23;95002.59;;;8.14;60.92
85386;BME280;75792;42.686;23.298;2024-02-04T03:46:49;95022.84;;;8.09;61.31
85386;BME280;75792;42.686;23.298;2024-02-04T03:49:15;94987.25;;;8.03;61.33
85386;BME280;75792;42.686;23.298;2024-02-04T03:51:40;94999.84;;;8.01;61.72
85386;BME280;75792;42.686;23.298;2024-02-04T03:54:06;94987.84;;;7.95;61.62
85386;BME280;75792;42.686;23.298;2024-02-04T03:56:31;95046.78;;;7.97;61.88
85386;BME280;75792;42.686;23.298;2024-02-04T03:58:57;95005.09;;;8.01;61.13
85386;BME280;75792;42.686;23.298;2024-02-04T04:01:22;95016.13;;;7.98;61.70
85386;BME280;75792;42.686;23.298;2024-02-04T04:03:47;95023.94;;;8.03;62.20
85386;BME280;75792;42.686;23.298;2024-02-04T04:06:13;95055.53;;;8.17;62.09
85386;BME280;75792;42.686;23.298;2024-02-04T04:08:38;95037.47;;;8.15;61.72
85386;BME280;75792;42.686;23.298;2024-02-04T04:11:04;95040.09;;;8.15;62.23
85386;BME280;75792;42.686;23.298;2024-02-04T04:13:29;95020.19;;;8.14;62.50
85386;BME280;75792;42.686;23.298;2024-02-04T04:15:55;95011.03;;;8.11;62.36
85386;BME280;75792;42.686;23.298;2024-02-04T04:18:20;95012.81;;;8.16;62.75
85386;BME280;75792;42.686;23.298;2024-02-04T04:20:46;95012.28;;;8.19;62.29
85386;BME280;75792;42.686;23.298;2024-02-04T04:23:12;95018.53;;;8.23;61.61
85386;BME280;75792;42.686;23.298;2024-02-04T04:25:38;95012.50;;;8.23;61.70
85386;BME280;75792;42.686;23.298;2024-02-04T04:28:03;95031.34;;;8.25;61.73
85386;BME280;75792;42.686;23.298;2024-02-04T04:30:29;95021.13;;;8.28;61.90
85386;BME280;75792;42.686;23.298;2024-02-04T04:32:55;95023.91;;;8.37;61.67
85386;BME280;75792;42.686;23.298;2024-02-04T04:35:21;95023.63;;;8.38;62.11
85386;BME280;75792;42.686;23.298;2024-02-04T04:37:46;95043.50;;;8.50;62.69
85386;BME280;75792;42.686;23.298;2024-02-04T04:40:12;95035.63;;;8.50;62.13
85386;BME280;75792;42.686;23.298;2024-02-04T04:42:37;95013.59;;;8.51;62.78
85386;BME280;75792;42.686;23.298;2024-02-04T04:45:03;95024.41;;;8.44;62.57
85386;BME280;75792;42.686;23.298;2024-02-04T04:47:28;95007.78;;;8.54;62.77
85386;BME280;75792;42.686;23.298;2024-02-04T04:49:54;95004.66;;;8.52;62.52
85386;BME280;75792;42.686;23.298;2024-02-04T04:52:20;95014.06;;;8.58;62.10
85386;BME280;75792;42.686;23.298;2024-02-04T04:54:45;95012.38;;;8.67;61.21
85386;BME280;75792;42.686;23.298;2024-02-04T04:57:10;95037.59;;;8.63;61.31
85386;BME280;75792;42.686;23.298;2024-02-04T04:59:36;95041.28;;;8.62;60.90
85386;BME280;75792;42.686;23.298;2024-02-04T05:02:03;95014.47;;;8.65;61.39
85386;BME280;75792;42.686;23.298;2024-02-04T05:04:29;95003.50;;;8.63;61.10
85386;BME280;75792;42.686;23.298;2024-02-04T05:06:55;95023.22;;;8.61;61.53
85386;BME280;75792;42.686;23.298;2024-02-04T05:09:20;95030.00;;;8.62;61.14
85386;BME280;75792;42.686;23.298;2024-02-04T05:11:45;95035.03;;;8.58;61.31
85386;BME280;75792;42.686;23.298;2024-02-04T05:14:11;95041.06;;;8.58;61.67
85386;BME280;75792;42.686;23.298;2024-02-04T05:16:36;95011.44;;;8.58;62.14
85386;BME280;75792;42.686;23.298;2024-02-04T05:19:02;95036.06;;;8.57;61.66
85386;BME280;75792;42.686;23.298;2024-02-04T05:21:28;95038.16;;;8.60;62.00
85386;BME280;75792;42.686;23.298;2024-02-04T05:23:54;95019.84;;;8.55;62.07
85386;BME280;75792;42.686;23.298;2024-02-04T05:26:20;95022.97;;;8.57;61.25
85386;BME280;75792;42.686;23.298;2024-02-04T05:28:45;95023.53;;;8.54;61.33
85386;BME280;75792;42.686;23.298;2024-02-04T05:31:10;95038.44;;;8.58;61.59
85386;BME280;75792;42.686;23.298;2024-02-04T05:33:36;95040.22;;;8.63;60.74
85386;BME280;75792;42.686;23.298;2024-02-04T05:36:01;95032.38;;;8.63;60.51
85386;BME280;75792;42.686;23.298;2024-02-04T05:38:27;95051.75;;;8.62;60.30
85386;BME280;75792;42.686;23.298;2024-02-04T05:40:52;95012.94;;;8.64;60.37
85386;BME280;75792;42.686;23.298;2024-02-04T05:43:17;95021.63;;;8.59;60.20
85386;BME280;75792;42.686;23.298;2024-02-04T05:45:43;95046.09;;;8.55;59.78
85386;BME280;75792;42.686;23.298;2024-02-04T05:48:11;95046.09;;;8.55;59.26
85386;BME280;75792;42.686;23.298;2024-02-04T05:50:37;95041.88;;;8.54;59.92
85386;BME280;75792;42.686;23.298;2024-02-04T05:53:02;95028.75;;;8.54;59.45
85386;BME280;75792;42.686;23.298;2024-02-04T05:55:28;95045.06;;;8.51;59.80
85386;BME280;75792;42.686;23.298;2024-02-04T05:57:54;95050.31;;;8.51;59.47
85386;BME280;75792;42.686;23.298;2024-02-04T06:00:20;95038.53;;;8.48;59.34
85386;BME280;75792;42.686;23.298;2024-02-04T06:02:45;95039.81;;;8.51;59.59
85386;BME280;75792;42.686;23.298;2024-02-04T06:05:11;95037.22;;;8.46;60.25
85386;BME280;75792;42.686;23.298;2024-02-04T06:07:37;95060.31;;;8.44;59.69
85386;BME280;75792;42.686;23.298;2024-02-04T06:10:02;95055.31;;;8.47;60.00
85386;BME280;75792;42.686;23.298;2024-02-04T06:12:31;95049.31;;;8.47;60.03
85386;BME280;75792;42.686;23.298;2024-02-04T06:14:56;95032.00;;;8.46;60.44
85386;BME280;75792;42.686;23.298;2024-02-04T06:17:22;95024.13;;;8.46;60.13
85386;BME280;75792;42.686;23.298;2024-02-04T06:19:47;95076.53;;;8.51;59.48
85386;BME280;75792;42.686;23.298;2024-02-04T06:22:15;95030.16;;;8.46;60.07
85386;BME280;75792;42.686;23.298;2024-02-04T06:24:40;95068.66;;;8.51;59.58
85386;BME280;75792;42.686;23.298;2024-02-04T06:27:07;95071.84;;;8.48;59.54
85386;BME280;75792;42.686;23.298;2024-02-04T06:29:33;95061.84;;;8.50;59.92
85386;BME280;75792;42.686;23.298;2024-02-04T06:31:58;95027.25;;;8.48;59.71
85386;BME280;75792;42.686;23.298;2024-02-04T06:34:23;95070.16;;;8.57;59.46
85386;BME280;75792;42.686;23.298;2024-02-04T06:36:49;95087.94;;;8.65;59.71
85386;BME280;75792;42.686;23.298;2024-02-04T06:39:15;95070.97;;;8.57;59.65
85386;BME280;75792;42.686;23.298;2024-02-04T06:41:40;95089.59;;;8.56;59.44
85386;BME280;75792;42.686;23.298;2024-02-04T06:44:06;95071.41;;;8.65;60.03
85386;BME280;75792;42.686;23.298;2024-02-04T06:46:31;95109.41;;;8.67;59.47
85386;BME280;75792;42.686;23.298;2024-02-04T06:48:57;95080.56;;;8.67;59.99
85386;BME280;75792;42.686;23.298;2024-02-04T06:51:22;95075.88;;;8.64;59.60
85386;BME280;75792;42.686;23.298;2024-02-04T06:53:48;95097.94;;;8.63;59.79
85386;BME280;75792;42.686;23.298;2024-02-04T06:56:13;95138.81;;;8.64;60.13
85386;BME280;75792;42.686;23.298;2024-02-04T06:58:40;95095.88;;;8.60;59.84
85386;BME280;75792;42.686;23.298;2024-02-04T07:01:06;95089.78;;;8.65;59.48
85386;BME280;75792;42.686;23.298;2024-02-04T07:03:31;95088.47;;;8.62;59.95
85386;BME280;75792;42.686;23.298;2024-02-04T07:06:00;95118.91;;;8.63;60.51
85386;BME280;75792;42.686;23.298;2024-02-04T07:08:26;95065.94;;;8.61;59.93
85386;BME280;75792;42.686;23.298;2024-02-04T07:10:52;95098.41;;;8.65;60.40
85386;BME280;75792;42.686;23.298;2024-02-04T07:13:17;95093.16;;;8.65;60.11
85386;BME280;75792;42.686;23.298;2024-02-04T07:15:43;95092.94;;;8.62;60.52
85386;BME280;75792;42.686;23.298;2024-02-04T07:18:09;95100.03;;;8.61;60.08
85386;BME280;75792;42.686;23.298;2024-02-04T07:20:35;95075.44;;;8.52;60.76
85386;BME280;75792;42.686;23.298;2024-02-04T07:23:00;95077.31;;;8.51;60.64
85386;BME280;75792;42.686;23.298;2024-02-04T07:25:26;95100.09;;;8.56;60.90
85386;BME280;75792;42.686;23.298;2024-02-04T07:27:51;95086.47;;;8.54;60.93
85386;BME280;75792;42.686;23.298;2024-02-04T07:30:17;95097.38;;;8.66;60.76
85386;BME280;75792;42.686;23.298;2024-02-04T07:32:42;95085.81;;;8.67;60.04
85386;BME280;75792;42.686;23.298;2024-02-04T07:35:07;95117.28;;;8.67;60.04
85386;BME280;75792;42.686;23.298;2024-02-04T07:37:37;95107.78;;;8.76;59.27
85386;BME280;75792;42.686;23.298;2024-02-04T07:40:02;95090.97;;;8.77;59.12
85386;BME280;75792;42.686;23.298;2024-02-04T07:42:30;95092.59;;;8.73;59.32
85386;BME280;75792;42.686;23.298;2024-02-04T07:44:56;95080.53;;;8.72;59.00
85386;BME280;75792;42.686;23.298;2024-02-04T07:47:21;95108.78;;;8.80;59.17
85386;BME280;75792;42.686;23.298;2024-02-04T07:49:50;95120.34;;;8.79;59.08
85386;BME280;75792;42.686;23.298;2024-02-04T07:52:15;95112.47;;;8.79;59.09
85386;BME280;75792;42.686;23.298;2024-02-04T07:54:41;95093.53;;;8.83;58.35
85386;BME280;75792;42.686;23.298;2024-02-04T07:57:08;95090.31;;;8.91;58.58
85386;BME280;75792;42.686;23.298;2024-02-04T07:59:34;95109.66;;;9.00;58.36
85386;BME280;75792;42.686;23.298;2024-02-04T08:02:00;95083.41;;;9.00;58.18
85386;BME280;75792;42.686;23.298;2024-02-04T08:04:25;95097.94;;;9.16;57.44
85386;BME280;75792;42.686;23.298;2024-02-04T08:06:51;95116.69;;;9.05;57.49
85386;BME280;75792;42.686;23.298;2024-02-04T08:09:17;95105.50;;;8.94;57.82
85386;BME280;75792;42.686;23.298;2024-02-04T08:11:43;95117.25;;;9.01;57.89
85386;BME280;75792;42.686;23.298;2024-02-04T08:14:08;95111.25;;;8.96;57.64
85386;BME280;75792;42.686;23.298;2024-02-04T08:16:34;95083.41;;;9.00;57.71
85386;BME280;75792;42.686;23.298;2024-02-04T08:18:59;95117.47;;;9.05;57.18
85386;BME280;75792;42.686;23.298;2024-02-04T08:21:25;95106.75;;;9.25;56.49
85386;BME280;75792;42.686;23.298;2024-02-04T08:23:51;95109.31;;;9.31;56.27
85386;BME280;75792;42.686;23.298;2024-02-04T08:26:16;95139.84;;;9.27;56.70
85386;BME280;75792;42.686;23.298;2024-02-04T08:28:42;95118.72;;;9.37;55.85
85386;BME280;75792;42.686;23.298;2024-02-04T08:31:07;95073.44;;;9.45;56.18
85386;BME280;75792;42.686;23.298;2024-02-04T08:33:33;95066.69;;;9.39;56.79
85386;BME280;75792;42.686;23.298;2024-02-04T08:35:58;95072.66;;;9.44;56.71
85386;BME280;75792;42.686;23.298;2024-02-04T08:38:24;95070.31;;;9.43;56.45
85386;BME280;75792;42.686;23.298;2024-02-04T08:40:49;95068.53;;;9.38;57.02
85386;BME280;75792;42.686;23.298;2024-02-04T08:43:15;95086.19;;;9.33;56.58
85386;BME280;75792;42.686;23.298;2024-02-04T08:45:40;95110.53;;;9.38;55.91
85386;BME280;75792;42.686;23.298;2024-02-04T08:48:06;95138.50;;;9.53;55.39
85386;BME280;75792;42.686;23.298;2024-02-04T08:50:31;95092.97;;;9.58;55.72
85386;BME280;75792;42.686;23.298;2024-02-04T08:52:56;95099.59;;;9.55;55.73
85386;BME280;75792;42.686;23.298;2024-02-04T08:55:22;95095.44;;;9.49;56.62
85386;BME280;75792;42.686;23.298;2024-02-04T08:57:47;95085.63;;;9.36;57.25
85386;BME280;75792;42.686;23.298;2024-02-04T09:00:16;95095.09;;;9.37;56.58
85386;BME280;75792;42.686;23.298;2024-02-04T09:02:41;95102.97;;;9.37;56.37
85386;BME280;75792;42.686;23.298;2024-02-04T09:05:07;95106.88;;;9.39;56.16
85386;BME280;75792;42.686;23.298;2024-02-04T09:07:33;95104.63;;;9.28;56.68
85386;BME280;75792;42.686;23.298;2024-02-04T09:09:58;95116.69;;;9.29;57.31
85386;BME280;75792;42.686;23.298;2024-02-04T09:12:24;95104.91;;;9.26;57.09
85386;BME280;75792;42.686;23.298;2024-02-04T09:14:49;95097.38;;;9.19;57.02
85386;BME280;75792;42.686;23.298;2024-02-04T09:17:14;95134.03;;;9.30;57.34
85386;BME280;75792;42.686;23.298;2024-02-04T09:19:40;95112.44;;;9.33;57.37
85386;BME280;75792;42.686;23.298;2024-02-04T09:22:05;95149.78;;;9.30;56.91
85386;BME280;75792;42.686;23.298;2024-02-04T09:24:31;95126.88;;;9.35;57.04
85386;BME280;75792;42.686;23.298;2024-02-04T09:26:56;95133.63;;;9.41;57.22
85386;BME280;75792;42.686;23.298;2024-02-04T09:29:23;95144.84;;;9.47;57.21
85386;BME280;75792;42.686;23.298;2024-02-04T09:31:48;95157.50;;;9.45;57.99
85386;BME280;75792;42.686;23.298;2024-02-04T09:34:15;95134.91;;;9.44;57.33
85386;BME280;75792;42.686;23.298;2024-02-04T09:36:41;95151.44;;;9.68;57.27
85386;BME280;75792;42.686;23.298;2024-02-04T09:39:06;95199.72;;;9.73;57.19
85386;BME280;75792;42.686;23.298;2024-02-04T09:41:33;95135.97;;;9.86;57.06
85386;BME280;75792;42.686;23.298;2024-02-04T09:43:58;95117.94;;;9.98;56.56
85386;BME280;75792;42.686;23.298;2024-02-04T09:46:26;95131.94;;;10.12;55.98
85386;BME280;75792;42.686;23.298;2024-02-04T09:48:54;95128.31;;;10.08;55.98
85386;BME280;75792;42.686;23.298;2024-02-04T09:51:20;95124.81;;;10.13;56.18
85386;BME280;75792;42.686;23.298;2024-02-04T09:53:51;95113.38;;;10.23;56.12
85386;BME280;75792;42.686;23.298;2024-02-04T09:56:18;95161.75;;;10.46;55.38
85386;BME280;75792;42.686;23.298;2024-02-04T09:58:44;95138.69;;;10.56;55.17
85386;BME280;75792;42.686;23.298;2024-02-04T10:01:11;95102.16;;;10.69;55.02
85386;BME280;75792;42.686;23.298;2024-02-04T10:03:37;95108.09;;;10.61;55.20
85386;BME280;75792;42.686;23.298;2024-02-04T10:06:03;95123.63;;;10.43;56.22
85386;BME280;75792;42.686;23.298;2024-02-04T10:08:29;95131.94;;;10.50;57.04
85386;BME280;75792;42.686;23.298;2024-02-04T10:10:54;95141.56;;;10.41;57.09
85386;BME280;75792;42.686;23.298;2024-02-04T10:13:20;95127.69;;;10.36;56.72
85386;BME280;75792;42.686;23.298;2024-02-04T10:15:48;95125.91;;;10.31;57.35
85386;BME280;75792;42.686;23.298;2024-02-04T10:18:14;95132.75;;;10.32;57.05
85386;BME280;75792;42.686;23.298;2024-02-04T10:20:40;95132.97;;;10.36;57.11
85386;BME280;75792;42.686;23.298;2024-02-04T10:23:05;95129.56;;;10.35;57.15
85386;BME280;75792;42.686;23.298;2024-02-04T10:25:31;95131.09;;;10.17;58.04
85386;BME280;75792;42.686;23.298;2024-02-04T10:27:57;95113.38;;;10.23;58.14
85386;BME280;75792;42.686;23.298;2024-02-04T10:30:23;95156.03;;;10.20;57.90
85386;BME280;75792;42.686;23.298;2024-02-04T10:32:53;95164.78;;;10.15;58.23
85386;BME280;75792;42.686;23.298;2024-02-04T10:35:23;95117.75;;;10.13;58.55
85386;BME280;75792;42.686;23.298;2024-02-04T10:37:51;95127.19;;;10.15;58.65
85386;BME280;75792;42.686;23.298;2024-02-04T10:40:18;95093.28;;;10.13;58.59
85386;BME280;75792;42.686;23.298;2024-02-04T10:42:44;95097.41;;;10.19;58.28
85386;BME280;75792;42.686;23.298;2024-02-04T10:45:10;95128.72;;;10.16;59.13
85386;BME280;75792;42.686;23.298;2024-02-04T10:47:40;95115.66;;;10.10;58.60
85386;BME280;75792;42.686;23.298;2024-02-04T10:50:07;95123.06;;;10.08;59.10
85386;BME280;75792;42.686;23.298;2024-02-04T10:52:38;95141.53;;;10.03;59.35
85386;BME280;75792;42.686;23.298;2024-02-04T10:55:09;95096.34;;;10.01;59.44
85386;BME280;75792;42.686;23.298;2024-02-04T10:57:35;95109.75;;;10.00;58.62
85386;BME280;75792;42.686;23.298;2024-02-04T11:00:05;95113.09;;;10.05;59.03
85386;BME280;75792;42.686;23.298;2024-02-04T11:02:37;95096.56;;;10.05;59.16
85386;BME280;75792;42.686;23.298;2024-02-04T11:05:04;95116.66;;;10.15;58.86
85386;BME280;75792;42.686;23.298;2024-02-04T11:07:32;95086.97;;;9.95;58.81
85386;BME280;75792;42.686;23.298;2024-02-04T11:10:02;95133.09;;;10.06;58.59
85386;BME280;75792;42.686;23.298;2024-02-04T11:12:30;95108.84;;;10.09;58.19
85386;BME280;75792;42.686;23.298;2024-02-04T11:15:00;95148.22;;;10.15;58.67
85386;BME280;75792;42.686;23.298;2024-02-04T11:17:47;95109.56;;;10.15;58.52
85386;BME280;75792;42.686;23.298;2024-02-04T11:20:39;95105.78;;;10.21;58.01
85386;BME280;75792;42.686;23.298;2024-02-04T11:25:56;95106.28;;;10.04;58.19
85386;BME280;75792;42.686;23.298;2024-02-04T11:28:23;95081.91;;;10.18;57.91
85386;BME280;75792;42.686;23.298;2024-02-04T11:30:51;95107.69;;;10.16;58.24
85386;BME280;75792;42.686;23.298;2024-02-04T11:33:21;95110.84;;;10.18;57.48
85386;BME280;75792;42.686;23.298;2024-02-04T11:35:46;95128.91;;;10.24;57.58
85386;BME280;75792;42.686;23.298;2024-02-04T11:38:17;95060.22;;;10.26;58.05
85386;BME280;75792;42.686;23.298;2024-02-04T11:40:43;95071.38;;;10.37;57.51
85386;BME280;75792;42.686;23.298;2024-02-04T11:43:14;95090.91;;;10.49;57.57
85386;BME280;75792;42.686;23.298;2024-02-04T11:45:43;95099.91;;;10.62;56.72
85386;BME280;75792;42.686;23.298;2024-02-04T11:48:10;95083.56;;;10.79;56.13
85386;BME280;75792;42.686;23.298;2024-02-04T11:50:36;95091.41;;;10.98;55.64
85386;BME280;75792;42.686;23.298;2024-02-04T11:53:12;95058.84;;;11.08;55.11
85386;BME280;75792;42.686;23.298;2024-02-04T11:55:39;95042.56;;;11.33;54.81
85386;BME280;75792;42.686;23.298;2024-02-04T11:58:06;95024.28;;;11.37;53.84
85386;BME280;75792;42.686;23.298;2024-02-04T12:00:34;95065.28;;;11.29;52.97
85386;BME280;75792;42.686;23.298;2024-02-04T12:03:06;95022.06;;;11.16;54.39
85386;BME280;75792;42.686;23.298;2024-02-04T12:05:36;95047.53;;;11.07;54.46
85386;BME280;75792;42.686;23.298;2024-02-04T12:08:03;95033.09;;;11.05;54.17
85386;BME280;75792;42.686;23.298;2024-02-04T12:10:33;95053.38;;;11.18;54.49
85386;BME280;75792;42.686;23.298;2024-02-04T12:13:02;95031.03;;;11.29;53.73
85386;BME280;75792;42.686;23.298;2024-02-04T12:15:28;95052.22;;;11.24;54.21
85386;BME280;75792;42.686;23.298;2024-02-04T12:17:53;95020.22;;;11.17;53.92
85386;BME280;75792;42.686;23.298;2024-02-04T12:20:19;95028.41;;;11.29;54.13
85386;BME280;75792;42.686;23.298;2024-02-04T12:22:44;95020.19;;;11.44;52.98
85386;BME280;75792;42.686;23.298;2024-02-04T12:25:10;95025.16;;;11.82;52.64
85386;BME280;75792;42.686;23.298;2024-02-04T12:27:36;95016.44;;;11.96;51.70
85386;BME280;75792;42.686;23.298;2024-02-04T12:30:01;95034.94;;;11.82;52.10
85386;BME280;75792;42.686;23.298;2024-02-04T12:32:27;95005.56;;;12.11;51.25
85386;BME280;75792;42.686;23.298;2024-02-04T12:34:53;95011.44;;;12.08;51.42
85386;BME280;75792;42.686;23.298;2024-02-04T12:37:21;95008.19;;;12.34;50.59
85386;BME280;75792;42.686;23.298;2024-02-04T12:39:47;95000.84;;;12.53;49.84
85386;BME280;75792;42.686;23.298;2024-02-04T12:42:18;95048.72;;;12.15;50.63
85386;BME280;75792;42.686;23.298;2024-02-04T12:44:47;95016.84;;;12.25;50.00
85386;BME280;75792;42.686;23.298;2024-02-04T12:47:13;95005.34;;;12.52;49.16
85386;BME280;75792;42.686;23.298;2024-02-04T12:49:40;95012.78;;;12.82;48.47
85386;BME280;75792;42.686;23.298;2024-02-04T12:52:06;95028.34;;;12.29;49.63
85386;BME280;75792;42.686;23.298;2024-02-04T12:54:42;95011.44;;;12.08;50.16
85386;BME280;75792;42.686;23.298;2024-02-04T12:57:08;95017.16;;;11.87;51.69
85386;BME280;75792;42.686;23.298;2024-02-04T12:59:37;95024.00;;;11.75;51.94
85386;BME280;75792;42.686;23.298;2024-02-04T13:02:03;95028.59;;;11.47;52.69